Home   Weather   USA   Calabasas   Past weeks
Flag for USA

Past Weather in Calabasas, California, USA — September 2022

Currently: 71 °F. Clear. (Weather station: Van Nuys Airport, USA). See more current weather

September 2022 Weather in Calabasas — Graph

°F

High & Low Weather Summary for September 2022

 TemperatureHumidityPressure
High110 °F (Sep 4, 3:32 pm)91% (Sep 9, 11:51 pm)30.00 "Hg (Sep 9, 11:51 pm)
Low60 °F (Sep 19, 6:51 am)11% (Sep 25, 6:51 pm)29.52 "Hg (Sep 9, 2:51 am)
Average81 °F49%29.83 "Hg
* Reported Sep 1 12:51 am — Sep 28 3:51 pm, Calabasas. Weather by CustomWeather, © 2022

Note: Actual official high and low records may vary slightly from our data, if they occured in-between our weather recording intervals... More about our weather records

Calabasas Weather History for September 1, 2022

Scroll right to see more
 ConditionsComfort  
Time TempWeatherWind HumidityBarometerVisibility
12:51 am
Thu, Sep 1
90 °FClear.3 mph25%29.73 "Hg9 mi
1:51 am90 °FClear.No wind27%29.72 "Hg9 mi
2:51 am87 °FClear.No wind32%29.72 "Hg10 mi
3:51 am86 °FClear.No wind32%29.71 "Hg10 mi
4:51 am86 °FClear.3 mph32%29.70 "Hg10 mi
5:51 am88 °FClear.5 mph28%29.71 "Hg10 mi
6:51 am86 °FSunny.No wind28%29.72 "Hg10 mi
7:51 am88 °FSunny.5 mph31%29.74 "Hg10 mi
8:51 am92 °FSunny.3 mph29%29.74 "Hg10 mi
9:51 am98 °FSunny.3 mph23%29.73 "Hg10 mi
10:51 am100 °FSunny.12 mph25%29.73 "Hg10 mi
11:51 am99 °FSunny.14 mph25%29.73 "Hg10 mi
12:51 pm100 °FSunny.12 mph25%29.72 "Hg10 mi
1:51 pm103 °FSunny.12 mph22%29.70 "Hg10 mi
2:51 pm103 °FSunny.13 mph19%29.68 "Hg10 mi
3:51 pm103 °FSunny.13 mph21%29.67 "Hg10 mi
5:51 pm101 °FSunny.9 mph22%29.65 "Hg10 mi
6:51 pm95 °FSunny.9 mph27%29.67 "Hg10 mi
7:51 pm90 °FClear.7 mph38%29.68 "Hg10 mi
8:51 pm87 °FClear.6 mph43%29.70 "Hg10 mi
9:51 pm84 °FClear.7 mph51%29.72 "Hg10 mi
10:51 pm82 °FClear.3 mph53%29.72 "Hg10 mi
11:51 pm82 °FClear.5 mph53%29.72 "Hg10 mi
Weather by CustomWeather, © 2022

See weather overview